Time;durP1;ratioP1;P1;durP2;ratioP2;P2;SDS_P1;SDS_P2;PMS_P1;PMS_P2;Temp;Humidity;BMP_temperature;BMP_pressure;BME280_temperature;BME280_humidity;BME280_pressure;Samples;Min_cycle;Max_cycle;Signal;HPM_P1;HPM_P2
2021/05/20 00:01:15;;;;;;;11.27;6.57;;;;;;;24.12;46.74;98505.59;3323633;29;20042;-72
2021/05/20 00:02:55;;;;;;;10.63;6.90;;;;;;;24.09;47.03;98507.00;3324748;29;20042;-74
2021/05/20 00:04:36;;;;;;;11.97;7.00;;;;;;;24.04;47.09;98487.28;3311428;29;20141;-72
2021/05/20 00:06:17;;;;;;;9.60;5.87;;;;;;;24.03;46.99;98486.47;3322492;29;20490;-73
2021/05/20 00:07:58;;;;;;;8.77;6.27;;;;;;;24.06;47.02;98490.47;3324850;29;20054;-72
2021/05/20 00:09:38;;;;;;;11.53;7.53;;;;;;;24.07;46.84;98490.19;3325191;29;20471;-72
2021/05/20 00:11:19;;;;;;;13.57;6.17;;;;;;;24.07;46.96;98482.00;3322498;29;20517;-72
2021/05/20 00:13:00;;;;;;;10.27;6.13;;;;;;;24.02;47.09;98478.63;3315653;29;20490;-73
2021/05/20 00:14:41;;;;;;;6.50;5.33;;;;;;;24.00;47.16;98492.53;3324410;29;20122;-70
2021/05/20 00:16:22;;;;;;;11.93;6.93;;;;;;;24.02;47.01;98494.97;3325161;29;20050;-70
2021/05/20 00:18:03;;;;;;;9.88;6.53;;;;;;;24.06;46.97;98493.22;3325231;29;20038;-71
2021/05/20 00:19:43;;;;;;;11.17;6.67;;;;;;;24.01;46.89;98487.91;3323869;29;20106;-73
2021/05/20 00:21:24;;;;;;;7.77;6.20;;;;;;;24.01;47.22;98483.28;3325026;29;20121;-72
2021/05/20 00:23:04;;;;;;;11.30;6.30;;;;;;;23.88;47.12;98474.09;3324390;29;20577;-70
2021/05/20 00:24:47;;;;;;;8.47;6.07;;;;;;;23.89;47.18;98475.69;3323966;29;20043;-71
2021/05/20 00:26:27;;;;;;;9.13;6.63;;;;;;;23.76;47.32;98465.69;3325043;29;20125;-72
2021/05/20 00:28:21;;;;;;;13.40;6.25;;;;;;;23.67;47.67;98478.41;3324681;29;20050;-72
2021/05/20 00:30:02;;;;;;;;;;;;;;;23.70;47.27;98469.63;3325237;29;20434;-72
2021/05/20 00:31:46;;;;;;;7.68;5.40;;;;;;;23.62;47.60;98473.06;3324558;29;20392;-72
2021/05/20 00:33:26;;;;;;;8.50;6.00;;;;;;;23.65;47.73;98480.66;3325146;29;20054;-71
2021/05/20 00:35:17;;;;;;;8.48;5.78;;;;;;;23.68;47.67;98485.47;3324673;29;20051;-71
2021/05/20 00:36:57;;;;;;;9.23;5.97;;;;;;;23.67;47.71;98495.53;3325134;29;20042;-72
2021/05/20 00:38:38;;;;;;;13.77;6.87;;;;;;;23.61;47.77;98495.97;3324455;29;20061;-72
2021/05/20 00:40:19;;;;;;;10.20;5.82;;;;;;;23.59;47.65;98503.63;3324978;29;20054;-71
2021/05/20 00:42:10;;;;;;;7.90;6.90;;;;;;;23.59;47.79;98509.06;3324605;29;20419;-74
2021/05/20 00:43:51;;;;;;;8.13;6.13;;;;;;;23.57;47.74;98497.69;3323468;29;20552;-71
2021/05/20 00:45:31;;;;;;;12.77;6.60;;;;;;;23.60;47.61;98495.16;3324878;29;20099;-71
2021/05/20 00:47:12;;;;;;;11.03;6.20;;;;;;;23.62;47.68;98503.00;3325002;29;20050;-73
2021/05/20 00:48:53;;;;;;;9.30;6.37;;;;;;;23.58;47.83;98496.59;3323545;29;20529;-74
2021/05/20 00:50:33;;;;;;;9.87;7.30;;;;;;;23.59;47.93;98504.44;3324728;29;20062;-74
2021/05/20 00:52:15;;;;;;;10.23;6.93;;;;;;;23.59;47.86;98503.63;3324830;29;20046;-73
2021/05/20 00:53:55;;;;;;;10.90;6.88;;;;;;;23.51;48.04;98494.28;3322214;29;20410;-73
2021/05/20 00:55:36;;;;;;;17.17;7.83;;;;;;;23.45;48.08;98495.53;3333732;29;20046;-75
2021/05/20 00:57:18;;;;;;;12.63;7.33;;;;;;;23.40;48.37;98492.94;3335418;29;20118;-75
2021/05/20 00:59:00;;;;;;;11.00;6.90;;;;;;;23.40;48.32;98507.34;3336402;29;20049;-71
2021/05/20 01:00:41;;;;;;;10.37;7.27;;;;;;;23.43;48.30;98523.03;3336413;29;20448;-71
2021/05/20 01:02:22;;;;;;;8.10;6.47;;;;;;;23.46;48.33;98514.25;3336501;29;20046;-71
2021/05/20 01:04:03;;;;;;;9.37;5.57;;;;;;;23.43;48.22;98503.19;3333176;29;20060;-72
2021/05/20 01:05:44;;;;;;;11.57;7.38;;;;;;;23.51;48.16;98519.56;3330500;29;20153;-72
2021/05/20 01:07:25;;;;;;;9.67;6.20;;;;;;;23.46;48.25;98519.69;3336701;29;20129;-70
2021/05/20 01:09:05;;;;;;;8.40;6.30;;;;;;;23.35;48.41;98510.19;3336435;29;20132;-73
2021/05/20 01:10:46;;;;;;;9.67;5.70;;;;;;;23.35;48.36;98521.06;3336892;29;20101;-73
2021/05/20 01:12:27;;;;;;;10.20;6.73;;;;;;;23.33;48.47;98539.59;3336730;29;20129;-72
2021/05/20 01:14:11;;;;;;;9.57;6.67;;;;;;;23.34;48.59;98546.66;3318758;29;20053;-73
2021/05/20 01:15:51;;;;;;;11.65;6.13;;;;;;;23.32;48.60;98553.50;3328014;29;20038;-70
2021/05/20 01:17:32;;;;;;;8.57;6.23;;;;;;;23.27;48.59;98551.69;3336955;29;20498;-71
2021/05/20 01:19:14;;;;;;;10.63;6.03;;;;;;;23.31;48.80;98566.28;3335450;29;20080;-72
2021/05/20 01:20:55;;;;;;;8.40;5.85;;;;;;;23.31;49.01;98574.44;3336687;29;20128;-71
2021/05/20 01:22:35;;;;;;;6.93;5.97;;;;;;;23.25;49.10;98592.78;3336462;29;20084;-72
2021/05/20 01:24:16;;;;;;;7.83;5.63;;;;;;;23.23;49.25;98594.19;3334542;29;20410;-73
2021/05/20 01:26:03;;;;;;;11.13;5.70;;;;;;;23.19;49.45;98576.88;3335391;29;20073;-72
2021/05/20 01:27:45;;;;;;;6.43;5.60;;;;;;;23.15;49.17;98548.69;3330011;29;20050;-72
2021/05/20 01:29:25;;;;;;;8.05;5.50;;;;;;;23.24;49.33;98558.56;3336666;29;20418;-73
2021/05/20 01:31:08;;;;;;;8.70;4.97;;;;;;;23.17;49.37;98513.88;3336306;29;20134;-72
2021/05/20 01:32:49;;;;;;;5.38;4.60;;;;;;;23.19;49.50;98511.66;3333736;29;20052;-71
2021/05/20 01:34:32;;;;;;;7.27;5.70;;;;;;;23.16;49.24;98504.91;3336301;29;20078;-72
2021/05/20 01:36:13;;;;;;;6.03;4.95;;;;;;;23.24;49.31;98512.34;3337133;29;20052;-71
2021/05/20 01:38:53;;;;;;;6.65;4.80;;;;;;;23.24;49.43;98503.38;3329556;29;20072;-74
2021/05/20 01:40:15;;;;;;;8.30;4.97;;;;;;;23.13;49.66;98499.25;3326310;29;20047;-74
2021/05/20 01:41:56;;;;;;;10.20;4.50;;;;;;;23.10;49.38;98503.41;3324582;29;20039;-73
2021/05/20 01:43:37;;;;;;;9.40;4.77;;;;;;;23.01;49.53;98475.34;3324641;29;20506;-73
2021/05/20 01:45:18;;;;;;;7.43;4.30;;;;;;;22.93;49.50;98482.28;3323397;29;20046;-72
2021/05/20 01:46:59;;;;;;;4.83;4.10;;;;;;;22.87;49.55;98486.22;3324552;29;20141;-72
2021/05/20 01:48:42;;;;;;;6.43;4.07;;;;;;;22.79;49.72;98504.03;3324171;29;20849;-71
2021/05/20 01:50:24;;;;;;;5.47;4.88;;;;;;;22.73;49.86;98496.31;3336654;29;20050;-72
2021/05/20 01:52:05;;;;;;;4.35;3.83;;;;;;;22.65;50.14;98485.03;3329078;29;20157;-72
2021/05/20 01:53:51;;;;;;;6.57;4.30;;;;;;;22.57;50.32;98491.19;3326695;29;20046;-72
2021/05/20 01:55:32;;;;;;;5.25;4.00;;;;;;;22.54;50.14;98477.44;3326106;29;20506;-72
2021/05/20 01:57:13;;;;;;;4.75;3.70;;;;;;;22.50;50.33;98482.66;3325660;29;20046;-73
2021/05/20 01:58:54;;;;;;;6.13;4.40;;;;;;;22.43;50.27;98484.94;3326280;29;20571;-73
2021/05/20 02:00:34;;;;;;;5.20;4.63;;;;;;;22.46;50.49;98488.97;3326620;29;20054;-72
2021/05/20 02:02:15;;;;;;;4.20;3.80;;;;;;;22.44;50.51;98497.44;3326598;29;20136;-74
2021/05/20 02:03:56;;;;;;;4.87;4.07;;;;;;;22.40;50.03;98508.06;3326642;29;20050;-72
2021/05/20 02:05:37;;;;;;;4.83;4.03;;;;;;;22.42;50.54;98515.94;3324933;29;20423;-73
2021/05/20 02:07:17;;;;;;;4.70;3.70;;;;;;;22.46;50.50;98519.66;3326510;29;20046;-74
2021/05/20 02:08:58;;;;;;;5.00;4.60;;;;;;;22.47;50.41;98518.56;3326736;29;20499;-74
2021/05/20 02:10:39;;;;;;;4.20;3.80;;;;;;;22.42;50.76;98508.59;3325161;29;20602;-72
2021/05/20 02:12:20;;;;;;;4.33;3.93;;;;;;;22.40;50.81;98504.56;3316115;29;20442;-73
2021/05/20 02:14:00;;;;;;;4.37;3.90;;;;;;;22.38;51.13;98507.59;3314097;29;20062;-72
2021/05/20 02:15:41;;;;;;;4.20;3.80;;;;;;;22.36;51.00;98506.28;3317478;29;20829;-73
2021/05/20 02:17:21;;;;;;;4.53;4.13;;;;;;;22.31;51.35;98503.69;3326390;29;20050;-73
2021/05/20 02:19:03;;;;;;;4.77;3.77;;;;;;;22.29;51.30;98516.75;3326108;29;20073;-73
2021/05/20 02:20:44;;;;;;;5.45;4.35;;;;;;;22.25;51.62;98515.72;3326397;29;20413;-72
2021/05/20 02:22:26;;;;;;;5.70;4.60;;;;;;;22.26;51.29;98523.56;3325517;29;20057;-74
2021/05/20 02:24:07;;;;;;;4.67;4.20;;;;;;;22.25;51.39;98532.00;3326461;29;20499;-73
2021/05/20 02:25:48;;;;;;;9.05;4.60;;;;;;;22.21;51.38;98529.91;3326137;29;20042;-74
2021/05/20 02:27:29;;;;;;;5.23;4.37;;;;;;;22.22;51.62;98525.25;3324963;29;20058;-73
2021/05/20 02:29:09;;;;;;;5.63;3.50;;;;;;;22.21;51.72;98520.94;3325757;29;20038;-73
2021/05/20 02:30:50;;;;;;;3.63;3.30;;;;;;;22.18;51.92;98533.19;3326280;29;20425;-73
2021/05/20 02:32:31;;;;;;;4.23;3.80;;;;;;;22.16;51.86;98519.09;3326442;29;20038;-73
2021/05/20 02:34:12;;;;;;;5.43;3.70;;;;;;;22.13;51.95;98508.84;3326487;29;20050;-73
2021/05/20 02:35:53;;;;;;;4.43;4.03;;;;;;;22.13;51.82;98508.84;3326260;29;20081;-74
2021/05/20 02:37:33;;;;;;;6.03;5.50;;;;;;;22.15;51.65;98509.34;3326000;29;20069;-73
2021/05/20 02:39:14;;;;;;;5.47;4.60;;;;;;;22.17;51.61;98509.84;3325672;29;20045;-73
2021/05/20 02:40:55;;;;;;;5.67;3.53;;;;;;;22.23;51.45;98512.50;3326233;29;20119;-74
2021/05/20 02:42:36;;;;;;;4.80;3.80;;;;;;;22.21;51.30;98502.75;3326348;29;20054;-75
2021/05/20 02:44:16;;;;;;;4.97;3.60;;;;;;;22.29;51.28;98505.88;3326909;29;20474;-74
2021/05/20 02:45:57;;;;;;;3.43;2.90;;;;;;;22.27;51.43;98499.94;3327299;29;20046;-73
2021/05/20 02:47:38;;;;;;;6.67;4.17;;;;;;;22.26;51.23;98506.47;3325539;29;20557;-74
2021/05/20 02:49:19;;;;;;;7.43;4.00;;;;;;;22.26;51.40;98512.72;3324183;29;20105;-75
2021/05/20 02:50:59;;;;;;;3.87;3.57;;;;;;;22.25;51.76;98502.16;3325489;29;20392;-74
2021/05/20 02:52:44;;;;;;;5.10;3.87;;;;;;;22.27;51.64;98508.09;3325850;29;20046;-73
2021/05/20 02:54:25;;;;;;;4.03;3.60;;;;;;;22.27;51.21;98513.50;3326267;29;20499;-73
2021/05/20 02:56:06;;;;;;;6.23;3.50;;;;;;;22.25;51.29;98513.81;3326056;29;20038;-75
2021/05/20 02:58:04;;;;;;;5.90;4.07;;;;;;;22.21;51.51;98515.53;3325842;29;20141;-74
2021/05/20 02:59:45;;;;;;;5.70;3.25;;;;;;;22.15;51.09;98494.97;3325407;29;20046;-75
2021/05/20 03:01:27;;;;;;;5.20;3.97;;;;;;;22.21;50.96;98494.59;3325703;29;20044;-73
2021/05/20 03:03:07;;;;;;;6.32;3.70;;;;;;;22.19;51.15;98496.81;3325918;29;20085;-74
2021/05/20 03:04:50;;;;;;;4.57;4.10;;;;;;;22.18;51.06;98499.81;3325935;29;20046;-75
2021/05/20 03:06:31;;;;;;;9.43;3.42;;;;;;;22.19;51.26;98496.81;3325777;29;20485;-74
2021/05/20 03:08:12;;;;;;;3.90;3.33;;;;;;;22.25;51.47;98497.50;3325855;29;20149;-76
2021/05/20 03:09:54;;;;;;;5.10;3.60;;;;;;;22.34;51.04;98508.50;3325688;29;20124;-75
2021/05/20 03:11:35;;;;;;;4.55;3.47;;;;;;;22.39;51.06;98500.25;3325816;29;20410;-73
2021/05/20 03:13:16;;;;;;;5.67;3.93;;;;;;;22.46;51.01;98494.41;3325812;29;20133;-74
2021/05/20 03:14:56;;;;;;;5.03;3.43;;;;;;;22.41;51.01;98492.63;3325806;29;20137;-75
2021/05/20 03:16:37;;;;;;;3.97;3.37;;;;;;;22.40;50.76;98491.00;3325950;29;20047;-76
2021/05/20 03:18:18;;;;;;;3.50;3.20;;;;;;;22.42;50.78;98486.06;3325442;29;20478;-74
2021/05/20 03:19:59;;;;;;;4.40;3.43;;;;;;;22.42;50.83;98483.34;3325874;29;20186;-74
2021/05/20 03:21:39;;;;;;;5.53;3.27;;;;;;;22.41;50.81;98503.47;3325611;29;20054;-74
2021/05/20 03:23:20;;;;;;;6.23;3.70;;;;;;;22.31;50.97;98504.47;3325604;29;20050;-74
2021/05/20 03:25:01;;;;;;;4.40;3.43;;;;;;;22.31;51.00;98509.09;3325720;29;20046;-74
2021/05/20 03:26:41;;;;;;;5.13;2.93;;;;;;;22.27;50.88;98502.66;3325705;29;20053;-74
2021/05/20 03:28:22;;;;;;;5.53;3.63;;;;;;;22.29;50.87;98500.44;3325464;29;20050;-75
2021/05/20 03:30:03;;;;;;;4.93;3.43;;;;;;;22.30;50.95;98496.63;3325838;29;20050;-74
2021/05/20 03:31:44;;;;;;;3.90;3.35;;;;;;;22.29;51.04;98486.88;3324860;29;20418;-73
2021/05/20 03:33:25;;;;;;;6.27;3.43;;;;;;;22.32;50.76;98492.50;3325684;29;20054;-74
2021/05/20 03:35:07;;;;;;;5.00;4.17;;;;;;;22.36;50.97;98479.16;3325631;29;20042;-73
2021/05/20 03:36:47;;;;;;;5.80;4.28;;;;;;;22.35;50.85;98463.94;3325440;29;20184;-73
2021/05/20 03:38:28;;;;;;;6.30;3.87;;;;;;;22.36;50.59;98458.22;3325662;29;20038;-74
2021/05/20 03:40:12;;;;;;;8.83;5.43;;;;;;;22.41;50.80;98468.19;3325908;29;20051;-74
2021/05/20 03:41:52;;;;;;;10.77;5.65;;;;;;;22.40;50.64;98450.25;3325111;29;20034;-73
2021/05/20 03:43:37;;;;;;;6.40;4.67;;;;;;;22.35;50.69;98450.38;3325627;29;20535;-74
2021/05/20 03:45:18;;;;;;;6.00;3.80;;;;;;;22.31;50.73;98443.94;3324531;29;20058;-75
2021/05/20 03:46:58;;;;;;;3.73;3.43;;;;;;;22.37;50.87;98443.53;3325506;29;20507;-74
2021/05/20 03:48:39;;;;;;;4.97;3.93;;;;;;;22.43;50.46;98446.94;3324926;29;20426;-75
2021/05/20 03:50:20;;;;;;;5.83;4.07;;;;;;;22.45;50.71;98447.44;3337088;29;20479;-75
2021/05/20 03:52:04;;;;;;;6.60;4.27;;;;;;;22.45;50.75;98461.03;3327154;29;20034;-74
2021/05/20 03:53:44;;;;;;;4.90;3.28;;;;;;;22.46;50.47;98459.94;3325036;29;20292;-74
2021/05/20 03:55:25;;;;;;;7.20;4.30;;;;;;;22.43;50.76;98464.06;3325522;29;20061;-74
2021/05/20 03:57:06;;;;;;;6.90;3.73;;;;;;;22.38;50.75;98475.03;3325696;29;20042;-74
2021/05/20 03:58:46;;;;;;;4.30;3.83;;;;;;;22.33;50.64;98479.72;3325292;29;20396;-73
2021/05/20 04:00:27;;;;;;;4.83;3.90;;;;;;;22.28;51.05;98482.53;3325420;29;20414;-74
2021/05/20 04:02:08;;;;;;;4.50;3.87;;;;;;;22.24;51.17;98493.19;3324444;29;20042;-73
2021/05/20 04:03:49;;;;;;;4.47;3.73;;;;;;;22.18;51.40;98495.19;3325069;29;20050;-75
2021/05/20 04:05:29;;;;;;;4.03;3.27;;;;;;;22.20;51.42;98494.91;3325511;29;20058;-73
2021/05/20 04:07:10;;;;;;;6.50;3.20;;;;;;;22.24;51.25;98501.34;3325323;29;20583;-74
2021/05/20 04:08:51;;;;;;;6.23;3.97;;;;;;;22.21;51.38;98489.19;3323477;29;20073;-75
2021/05/20 04:10:31;;;;;;;4.20;3.80;;;;;;;22.15;51.70;98479.50;3325114;29;20526;-73
2021/05/20 04:12:12;;;;;;;5.33;4.17;;;;;;;22.10;51.83;98479.59;3325276;29;20518;-74
2021/05/20 04:13:53;;;;;;;6.40;4.20;;;;;;;22.12;51.53;98474.69;3324664;29;20077;-71
2021/05/20 04:15:34;;;;;;;5.47;4.27;;;;;;;22.14;51.34;98467.03;3325374;29;20046;-73
2021/05/20 04:17:14;;;;;;;8.70;4.60;;;;;;;22.18;51.67;98481.59;3325156;29;20502;-72
2021/05/20 04:18:56;;;;;;;6.50;4.07;;;;;;;22.19;51.88;98485.16;3324647;29;20510;-74
2021/05/20 04:20:36;;;;;;;6.68;3.95;;;;;;;22.22;51.85;98484.56;3325012;29;20042;-73
2021/05/20 04:22:17;;;;;;;4.97;3.83;;;;;;;22.21;51.69;98477.53;3324850;29;20529;-74
2021/05/20 04:23:58;;;;;;;3.97;3.53;;;;;;;22.27;51.73;98486.38;3325334;29;20046;-72
2021/05/20 04:25:38;;;;;;;5.73;3.63;;;;;;;22.36;51.57;98479.94;3325027;29;20038;-73
2021/05/20 04:27:19;;;;;;;5.27;4.57;;;;;;;22.42;51.49;98484.16;3325101;29;20147;-74
2021/05/20 04:29:01;;;;;;;4.10;3.70;;;;;;;22.43;51.64;98480.34;3325178;29;20608;-75
2021/05/20 04:30:42;;;;;;;5.43;3.97;;;;;;;22.45;51.64;98488.19;3324861;29;20122;-74
2021/05/20 04:32:23;;;;;;;6.40;3.47;;;;;;;22.46;51.89;98481.66;3324205;29;20098;-73
2021/05/20 04:34:04;;;;;;;4.67;3.13;;;;;;;22.46;51.57;98478.94;3325012;29;20521;-73
2021/05/20 04:35:44;;;;;;;5.57;3.77;;;;;;;22.43;51.83;98479.53;3324603;29;20058;-76
2021/05/20 04:37:25;;;;;;;4.47;3.83;;;;;;;22.35;51.65;98483.75;3325017;29;20050;-74
2021/05/20 04:39:06;;;;;;;15.03;4.20;;;;;;;22.31;52.09;98496.34;3324665;29;20534;-70
2021/05/20 04:40:46;;;;;;;3.87;3.57;;;;;;;22.26;52.16;98496.44;3324415;29;20078;-73
2021/05/20 04:42:27;;;;;;;4.50;2.97;;;;;;;22.23;52.28;98486.19;3324914;29;20054;-73
2021/05/20 04:44:08;;;;;;;8.27;4.07;;;;;;;22.27;52.10;98497.22;3324761;29;20049;-73
2021/05/20 04:45:49;;;;;;;8.03;3.57;;;;;;;22.32;51.91;98502.56;3324084;29;20047;-74
2021/05/20 04:47:29;;;;;;;3.93;3.00;;;;;;;22.32;52.09;98499.84;3324974;29;20042;-75
2021/05/20 04:49:13;;;;;;;4.50;3.37;;;;;;;22.31;52.34;98490.09;3323520;29;20058;-73
2021/05/20 04:50:56;;;;;;;4.25;3.72;;;;;;;22.34;51.99;98500.34;3324431;29;20046;-75
2021/05/20 04:52:36;;;;;;;7.95;3.20;;;;;;;22.27;52.51;98498.03;3324716;29;20133;-73
2021/05/20 04:54:17;;;;;;;5.47;3.07;;;;;;;22.19;52.46;98491.38;3324496;29;20422;-73
2021/05/20 04:55:58;;;;;;;3.90;3.20;;;;;;;22.16;52.49;98494.66;3325441;29;20470;-74
2021/05/20 04:57:38;;;;;;;3.63;2.67;;;;;;;22.15;52.66;98492.25;3325683;29;20054;-75
2021/05/20 04:59:19;;;;;;;2.93;2.30;;;;;;;22.10;52.67;98508.66;3324464;29;20038;-75
2021/05/20 05:01:00;;;;;;;3.07;2.43;;;;;;;22.07;52.83;98501.09;3324945;29;20383;-72
2021/05/20 05:02:41;;;;;;;6.10;3.10;;;;;;;21.97;52.62;98493.97;3325681;29;20042;-74
2021/05/20 05:04:21;;;;;;;8.10;3.37;;;;;;;21.88;53.01;98490.31;3325609;29;20053;-73
2021/05/20 05:06:02;;;;;;;3.47;2.67;;;;;;;21.86;53.17;98497.94;3325982;29;20426;-73
2021/05/20 05:07:43;;;;;;;3.87;3.00;;;;;;;21.90;52.88;98496.25;3325198;29;20046;-74
2021/05/20 05:09:24;;;;;;;5.25;3.78;;;;;;;21.87;53.29;98483.28;3324239;29;20476;-74
2021/05/20 05:11:05;;;;;;;8.33;3.40;;;;;;;21.83;53.10;98487.69;3325485;29;20114;-75
2021/05/20 05:12:45;;;;;;;4.43;2.50;;;;;;;21.85;53.48;98485.47;3324804;29;20051;-75
2021/05/20 05:14:26;;;;;;;5.83;2.90;;;;;;;21.85;53.25;98489.00;3324694;29;20050;-74
2021/05/20 05:16:07;;;;;;;3.80;2.83;;;;;;;21.86;53.51;98497.94;3324280;29;20402;-72
2021/05/20 05:17:47;;;;;;;3.40;2.73;;;;;;;21.82;53.23;98496.94;3324412;29;20042;-73
2021/05/20 05:19:28;;;;;;;10.60;2.70;;;;;;;21.81;53.48;98498.03;3324622;29;20042;-73
2021/05/20 05:21:09;;;;;;;3.23;2.57;;;;;;;21.76;53.54;98494.31;3322663;29;20056;-75
2021/05/20 05:22:49;;;;;;;3.50;2.73;;;;;;;21.69;53.58;98499.31;3314236;29;20503;-74
2021/05/20 05:24:31;;;;;;;5.17;3.33;;;;;;;21.64;53.55;98506.72;3320515;29;20463;-76
2021/05/20 05:26:11;;;;;;;5.18;2.85;;;;;;;21.59;53.66;98506.81;3326564;29;20046;-75
2021/05/20 05:27:52;;;;;;;7.33;3.47;;;;;;;21.58;53.94;98505.97;3326520;29;20529;-73
2021/05/20 05:29:34;;;;;;;4.90;2.95;;;;;;;21.61;53.89;98516.25;3326712;29;20042;-73
2021/05/20 05:31:19;;;;;;;4.13;2.97;;;;;;;21.56;54.00;98511.72;3326491;29;20057;-75
2021/05/20 05:33:00;;;;;;;5.80;2.60;;;;;;;21.55;54.03;98503.88;3326844;29;20054;-74
2021/05/20 05:34:41;;;;;;;5.70;3.43;;;;;;;21.54;54.18;98491.41;3326476;29;20046;-74
2021/05/20 05:36:23;;;;;;;8.38;2.88;;;;;;;21.55;53.99;98503.88;3326669;29;20295;-73
2021/05/20 05:38:04;;;;;;;7.95;2.90;;;;;;;21.52;53.91;98482.78;3326613;29;20655;-74
2021/05/20 05:39:45;;;;;;;5.53;2.80;;;;;;;21.67;53.62;98495.28;3324820;29;20071;-75
2021/05/20 05:41:26;;;;;;;4.13;2.57;;;;;;;21.70;53.62;98506.34;3326300;29;20510;-74
2021/05/20 05:43:06;;;;;;;6.27;2.40;;;;;;;21.73;53.20;98508.44;3326724;29;20199;-74
2021/05/20 05:44:48;;;;;;;2.40;2.20;;;;;;;21.79;53.21;98509.19;3326465;29;20054;-75
2021/05/20 05:46:29;;;;;;;6.53;2.75;;;;;;;21.80;52.94;98513.50;3325635;29;20058;-74
2021/05/20 05:48:12;;;;;;;5.30;1.95;;;;;;;21.78;52.80;98508.34;3301229;29;20215;-74
2021/05/20 05:49:53;;;;;;;4.65;1.95;;;;;;;21.68;52.84;98503.09;3321030;29;20053;-74
2021/05/20 05:51:33;;;;;;;7.20;2.20;;;;;;;21.61;52.92;98518.13;3327020;29;20066;-76
2021/05/20 05:53:14;;;;;;;8.20;2.30;;;;;;;21.59;53.07;98510.31;3312187;29;20047;-73
2021/05/20 05:54:55;;;;;;;4.78;2.70;;;;;;;21.51;52.71;98484.69;3313745;29;20050;-74
2021/05/20 05:56:36;;;;;;;2.93;2.13;;;;;;;21.68;52.69;98502.31;3314295;29;20110;-71
2021/05/20 05:58:16;;;;;;;2.83;1.93;;;;;;;21.78;52.35;98492.09;3324919;29;20482;-74
2021/05/20 05:59:58;;;;;;;4.43;1.83;;;;;;;21.82;52.10;98488.81;3326958;29;20042;-74
2021/05/20 06:01:39;;;;;;;5.82;2.13;;;;;;;21.80;52.43;98486.38;3326449;29;20050;-73
2021/05/20 06:03:20;;;;;;;3.20;1.88;;;;;;;21.73;52.28;98473.19;3325934;29;20137;-75
2021/05/20 06:05:03;;;;;;;4.87;2.23;;;;;;;21.75;51.97;98492.69;3325985;29;20045;-76
2021/05/20 06:06:46;;;;;;;6.22;2.33;;;;;;;21.77;52.10;98497.81;3322527;29;20471;-74
2021/05/20 06:08:27;;;;;;;3.03;2.10;;;;;;;21.78;51.84;98505.66;3327507;29;20047;-73
2021/05/20 06:10:09;;;;;;;7.80;2.45;;;;;;;21.77;51.79;98512.19;3328176;29;20046;-74
2021/05/20 06:11:50;;;;;;;23.73;2.80;;;;;;;21.89;51.68;98519.03;3326861;29;20485;-75
2021/05/20 06:13:31;;;;;;;3.70;2.37;;;;;;;21.97;51.89;98511.03;3327200;29;20049;-78
2021/05/20 06:15:12;;;;;;;4.30;2.43;;;;;;;22.11;51.61;98521.09;3326214;29;20042;-75
2021/05/20 06:16:52;;;;;;;8.50;2.43;;;;;;;22.19;51.26;98521.25;3326356;29;20042;-74
2021/05/20 06:18:33;;;;;;;4.57;2.05;;;;;;;22.27;51.12;98535.22;3326477;29;20134;-76
2021/05/20 06:20:14;;;;;;;8.20;2.40;;;;;;;22.21;51.05;98524.47;3325112;29;20049;-75
2021/05/20 06:21:54;;;;;;;2.13;1.90;;;;;;;22.15;51.24;98533.78;3325677;29;20418;-77
2021/05/20 06:23:35;;;;;;;5.07;2.40;;;;;;;;;;3326104;29;20505;-74
2021/05/20 06:25:16;;;;;;;9.03;2.80;;;;;;;21.98;51.28;98517.25;3321635;29;20050;-76
2021/05/20 06:26:57;;;;;;;5.73;3.20;;;;;;;21.84;51.38;98510.97;3326282;29;20100;-75
2021/05/20 06:28:37;;;;;;;3.47;2.90;;;;;;;21.83;51.43;98517.53;3326336;29;20581;-75
2021/05/20 06:30:19;;;;;;;7.03;2.80;;;;;;;21.87;51.52;98532.13;3326119;29;20042;-76
2021/05/20 06:32:01;;;;;;;4.65;2.78;;;;;;;21.80;51.68;98537.09;3318829;29;20046;-77
2021/05/20 06:33:42;;;;;;;2.90;2.60;;;;;;;21.88;51.69;98547.28;3322184;29;20050;-75
2021/05/20 06:35:24;;;;;;;3.80;2.92;;;;;;;21.94;51.25;98554.22;3328703;29;20050;-72
2021/05/20 06:37:10;;;;;;;5.80;2.72;;;;;;;21.95;51.37;98534.13;3326072;29;20082;-73
2021/05/20 06:38:52;;;;;;;14.35;2.63;;;;;;;21.98;51.24;98547.91;3328778;29;20050;-74
2021/05/20 06:40:33;;;;;;;;;;;;;;;22.00;51.06;98550.34;3326784;29;20042;-76
2021/05/20 06:42:16;;;;;;;1.70;1.55;;;;;;;21.93;51.32;98556.13;3325757;29;19928;-74
2021/05/20 06:43:57;;;;;;;9.13;3.35;;;;;;;21.98;51.28;98553.34;3321693;29;20085;-71
2021/05/20 06:45:39;;;;;;;5.53;2.90;;;;;;;21.95;51.30;98528.72;3325010;29;20045;-74
2021/05/20 06:47:19;;;;;;;5.10;2.83;;;;;;;22.00;51.63;98520.50;3323736;29;20129;-76
2021/05/20 06:49:02;;;;;;;3.37;2.10;;;;;;;22.10;51.32;98508.66;3333206;29;20114;-73
2021/05/20 06:50:44;;;;;;;6.68;2.30;;;;;;;22.12;51.16;98498.28;3324757;29;20124;-74
2021/05/20 06:52:27;;;;;;;6.30;2.15;;;;;;;22.12;51.50;98498.28;3323169;29;20418;-74
2021/05/20 06:54:08;;;;;;;5.10;2.78;;;;;;;22.15;51.77;98498.50;3323460;29;21797;-75
2021/05/20 06:55:56;;;;;;;4.13;2.78;;;;;;;22.15;51.80;98478.69;3324275;29;20034;-76
2021/05/20 07:01:57;;;;;;;3.47;3.15;;;;;;;21.94;53.58;98489.94;3323128;29;20046;-73
2021/05/20 07:03:38;;;;;;;6.37;3.27;;;;;;;21.95;53.63;98501.59;3322789;29;20050;-72
2021/05/20 07:05:23;;;;;;;5.03;2.65;;;;;;;22.03;53.38;98492.75;3320032;29;20051;-75
2021/05/20 07:07:04;;;;;;;7.20;3.05;;;;;;;22.14;53.32;98493.38;3321583;29;20055;-75
2021/05/20 07:08:48;;;;;;;4.35;3.55;;;;;;;22.14;53.21;98494.16;3330760;29;20042;-74
2021/05/20 07:10:40;;;;;;;5.35;3.40;;;;;;;22.05;53.67;98490.53;3334383;29;20050;-73
2021/05/20 07:12:26;;;;;;;4.82;3.33;;;;;;;21.97;53.55;98488.53;3328982;29;20038;-72
2021/05/20 07:14:10;;;;;;;3.80;3.00;;;;;;;22.00;53.77;98501.50;3325025;29;20046;-72
2021/05/20 07:15:51;;;;;;;7.72;3.78;;;;;;;21.99;53.96;98508.00;3324385;29;20046;-73
2021/05/20 07:17:33;;;;;;;7.43;3.23;;;;;;;22.02;53.90;98506.59;3325124;29;20078;-73
2021/05/20 07:19:14;;;;;;;6.22;3.60;;;;;;;22.08;53.73;98500.78;3324172;29;20138;-73
2021/05/20 07:20:55;;;;;;;4.53;3.10;;;;;;;22.17;53.16;98504.41;3324732;29;20042;-73
2021/05/20 07:22:38;;;;;;;6.80;3.67;;;;;;;22.23;53.45;98507.06;3324710;29;20046;-74
2021/05/20 07:24:19;;;;;;;6.23;3.10;;;;;;;22.26;53.40;98509.19;3323909;29;20150;-73
2021/05/20 07:26:01;;;;;;;3.30;3.00;;;;;;;22.34;53.17;98517.44;3325368;29;20071;-75
2021/05/20 07:27:42;;;;;;;3.97;3.50;;;;;;;22.39;53.01;98528.19;3330179;29;20422;-75
2021/05/20 07:29:24;;;;;;;3.90;3.25;;;;;;;22.43;52.92;98517.53;3324664;29;20133;-74
2021/05/20 07:31:05;;;;;;;4.83;3.80;;;;;;;22.47;52.92;98518.56;3324072;29;20510;-74
2021/05/20 07:32:46;;;;;;;2.90;2.70;;;;;;;22.56;52.44;98515.91;3323522;29;20300;-77
2021/05/20 07:34:27;;;;;;;7.13;3.70;;;;;;;22.64;52.55;98507.09;3324697;29;20057;-75
2021/05/20 07:36:10;;;;;;;5.70;4.00;;;;;;;22.68;52.47;98515.44;3325513;29;20064;-74
2021/05/20 07:37:52;;;;;;;4.93;3.85;;;;;;;22.58;52.36;98502.84;3323665;29;20050;-77
2021/05/20 07:39:33;;;;;;;6.70;4.32;;;;;;;22.51;52.78;98506.00;3324577;29;20540;-75
2021/05/20 07:41:14;;;;;;;8.17;3.80;;;;;;;22.49;53.41;98518.25;3331116;29;20094;-75
2021/05/20 07:42:57;;;;;;;9.85;4.50;;;;;;;22.45;56.39;98507.19;3332129;29;20525;-72
2021/05/20 07:44:47;;;;;;;8.88;4.68;;;;;;;22.47;55.64;98513.13;3323001;29;20637;-73
2021/05/20 07:46:29;;;;;;;7.93;4.75;;;;;;;22.48;55.15;98517.44;3324402;29;20426;-72
2021/05/20 07:48:09;;;;;;;;;;;;;;;22.55;54.30;98520.56;3322737;29;20133;-74
2021/05/20 07:49:50;;;;;;;8.25;4.28;;;;;;;22.42;54.63;98524.06;3319158;29;19924;-75
2021/05/20 07:51:32;;;;;;;6.35;4.32;;;;;;;22.29;54.79;98514.03;3321173;29;20042;-77
2021/05/20 07:53:13;;;;;;;6.43;3.90;;;;;;;22.30;54.52;98526.47;3307992;29;20043;-77
2021/05/20 07:54:56;;;;;;;5.83;3.97;;;;;;;22.34;54.59;98503.06;3306599;29;20058;-75
2021/05/20 07:56:37;;;;;;;4.25;3.75;;;;;;;22.55;54.21;98498.84;3316838;29;20514;-74
2021/05/20 07:58:20;;;;;;;12.98;4.45;;;;;;;22.80;54.48;98504.84;3321646;29;20050;-75
2021/05/20 08:00:01;;;;;;;6.15;3.80;;;;;;;22.97;53.83;98510.47;3323710;29;20038;-75
2021/05/20 08:01:52;;;;;;;9.67;4.07;;;;;;;23.08;53.61;98511.06;3322206;29;20105;-75
2021/05/20 08:03:41;;;;;;;8.38;4.40;;;;;;;23.15;52.97;98505.19;3316699;29;21408;-75